Capitol Logistics 3260


KMIA
Miami International Airport
Miami, Florida, US
KTPA
Tampa International Airport
Tampa, Florida, US

Activity Log

Date Flight Route Aircraft Duration
04/07/2020 CPX3260 WINCO2 WINCO V97 BRDGE BRDGE8 SF34 1h 30m
11/07/2019 CPX660 WINCO2 WINCO V97 BRDGE BRDGE8 SF34 1h 01m
07/17/2019 CPX660 KMIA WINCO2 WINCO CHRRI DEAKK KTPA SF34 0h 54m

Route Details

Aircraft Information
Primary: Saab 340AF
Backup: Not Available
Route Data
Distance: 177nm
Sched. Duration: 1h 30m
Avg. Duration: 0h 95m (-35m)
Times Flown: 3
Recm'd Route: WINCO2 WINCO V97 BRDGE BRDGE8
Planned Altitude: 16,000ft
Origin Wx: KMIA 032153Z VRB04KT 10SM FEW032 SCT045 BKN110 BKN250 30/25 A2991 RMK AO2 LTG DSNT SW RAE2056 SLP130 CB NE AND DSNT SW P0000 T03000250 $
Dest. Wx: KTPA 032153Z 27010KT 10SM FEW033 OVC320 31/22 A2990 RMK AO2 SLP124 T03110217
Notes:

Financial History
Total Freight: 19,380lbs
Average Load: 6,460lbs/flt
Fuel Used: 2,887lbs
Avg. Fuel Used: 962lbs/flt
Fuel Expense: $3,551
Avg. Fuel Expense: $1,184
Avg. Fuel Cost: $1.23/lbs
Total Gross Income: $22,585
Pilot Pay: $557
Total Expenses: $2,595
Total Revenue: $15,834
Average Revenue: $7,528.17